createdAt,value
2023-01-11T00:00:49.581Z,1.08
2023-01-11T00:03:17.218Z,0.88
2023-01-11T00:05:44.097Z,3.05
2023-01-11T00:08:10.970Z,1.00
2023-01-11T00:10:37.552Z,1.13
2023-01-11T00:13:04.535Z,2.25
2023-01-11T00:15:30.978Z,4.25
2023-01-11T00:17:57.651Z,1.00
2023-01-11T00:20:24.399Z,1.90
2023-01-11T00:22:50.761Z,1.23
2023-01-11T00:25:17.146Z,1.00
2023-01-11T00:27:43.541Z,1.48
2023-01-11T00:30:10.495Z,1.65
2023-01-11T00:32:36.864Z,2.20
2023-01-11T00:35:03.546Z,1.63
2023-01-11T00:37:29.960Z,1.55
2023-01-11T00:39:56.359Z,1.30
2023-01-11T00:42:41.288Z,2.00
2023-01-11T00:45:26.235Z,1.77
2023-01-11T00:48:00.112Z,1.42
2023-01-11T00:50:29.147Z,1.00
2023-01-11T00:52:55.640Z,0.98
2023-01-11T00:55:22.018Z,2.20
2023-01-11T00:57:48.619Z,0.93
2023-01-11T01:00:15.324Z,0.70
2023-01-11T01:02:41.857Z,6.85
2023-01-11T01:05:08.542Z,0.88
2023-01-11T01:07:34.926Z,0.90
2023-01-11T01:10:01.327Z,1.90
2023-01-11T01:12:46.287Z,2.97
2023-01-11T01:15:12.642Z,7.63
2023-01-11T01:17:38.999Z,2.85
2023-01-11T01:20:05.998Z,0.75
2023-01-11T01:22:32.423Z,0.98
2023-01-11T01:24:58.788Z,3.42
2023-01-11T01:27:25.648Z,1.50
2023-01-11T01:29:52.014Z,1.98
2023-01-11T01:32:18.370Z,1.02
2023-01-11T01:34:44.743Z,1.00
2023-01-11T01:37:11.447Z,0.90
2023-01-11T01:39:37.846Z,4.85
2023-01-11T01:42:05.854Z,0.60
2023-01-11T01:44:56.607Z,1.00
2023-01-11T01:47:27.868Z,9.80
2023-01-11T01:49:54.320Z,3.50
2023-01-11T01:52:20.810Z,1.00
2023-01-11T01:54:48.277Z,0.60
2023-01-11T01:57:20.480Z,2.38
2023-01-11T02:02:19.314Z,0.70
2023-01-11T02:04:46.444Z,1.73
2023-01-11T02:07:21.560Z,1.75
2023-01-11T02:10:08.432Z,1.45
2023-01-11T02:12:57.146Z,0.60
2023-01-11T02:15:24.163Z,1.33
2023-01-11T02:17:50.887Z,1.15
2023-01-11T02:20:45.202Z,0.70
2023-01-11T02:23:48.746Z,0.70
2023-01-11T02:26:32.689Z,7.03
2023-01-11T02:29:14.014Z,0.60
2023-01-11T02:31:45.040Z,1.58
2023-01-11T02:34:34.678Z,0.98
2023-01-11T02:37:22.275Z,4.43
2023-01-11T02:39:54.623Z,1.67
2023-01-11T02:42:47.333Z,0.60
2023-01-11T02:45:25.885Z,1.40
2023-01-11T02:48:14.048Z,0.70
2023-01-11T02:50:52.053Z,1.08
2023-01-11T02:53:24.442Z,0.60
2023-01-11T02:55:54.749Z,0.80
2023-01-11T02:58:23.312Z,2.08
2023-01-11T03:00:50.344Z,0.75
2023-01-11T03:03:19.886Z,1.00
2023-01-11T03:05:53.906Z,0.63
2023-01-11T03:08:28.131Z,0.70
2023-01-11T03:11:08.569Z,0.70
2023-01-11T03:13:41.729Z,0.70
2023-01-11T03:16:21.674Z,2.53
2023-01-11T03:19:06.354Z,0.60
2023-01-11T03:22:07.215Z,0.60
2023-01-11T03:24:40.921Z,2.45
2023-01-11T03:27:07.235Z,10.25
2023-01-11T03:29:48.014Z,1.63
2023-01-11T03:32:48.980Z,0.70
2023-01-11T03:35:30.516Z,0.60
2023-01-11T03:38:06.051Z,1.05
2023-01-11T03:40:46.510Z,0.75
2023-01-11T03:43:14.272Z,0.70
2023-01-11T03:45:50.280Z,1.10
2023-01-11T03:48:26.582Z,0.70
2023-01-11T03:50:54.501Z,2.63
2023-01-11T03:53:22.453Z,1.45
2023-01-11T03:55:54.598Z,1.55
2023-01-11T04:00:48.474Z,1.00
2023-01-11T04:03:14.940Z,1.38
2023-01-11T04:05:43.878Z,0.80
2023-01-11T04:08:11.418Z,2.50
2023-01-11T04:10:38.115Z,0.70
2023-01-11T04:13:04.625Z,0.85
2023-01-11T04:15:32.604Z,0.80
2023-01-11T04:18:04.782Z,0.60
2023-01-11T04:22:58.575Z,0.60
2023-01-11T04:25:24.990Z,0.70
2023-01-11T04:27:51.362Z,1.55
2023-01-11T04:30:17.845Z,0.68
2023-01-11T04:32:44.254Z,0.70
2023-01-11T04:35:10.695Z,3.28
2023-01-11T04:37:37.070Z,1.23
2023-01-11T04:40:03.776Z,0.60
2023-01-11T04:42:30.217Z,0.60
2023-01-11T04:44:56.577Z,1.48
2023-01-11T04:47:24.012Z,0.85
2023-01-11T04:49:50.773Z,1.15
2023-01-11T04:52:18.844Z,0.75
2023-01-11T04:54:45.776Z,0.70
2023-01-11T04:57:13.830Z,0.88
2023-01-11T04:59:40.343Z,0.75
2023-01-11T05:02:06.780Z,0.75
2023-01-11T05:04:33.485Z,0.70
2023-01-11T05:07:00.125Z,1.02
2023-01-11T05:09:26.568Z,0.73
2023-01-11T05:11:52.963Z,0.80
2023-01-11T05:14:19.400Z,1.15
2023-01-11T05:16:45.915Z,0.80
2023-01-11T05:19:12.567Z,0.70
2023-01-11T05:21:40.488Z,1.20
2023-01-11T05:24:09.267Z,1.20
2023-01-11T05:26:37.529Z,1.77
2023-01-11T05:29:07.241Z,1.00
2023-01-11T05:31:34.692Z,2.08
2023-01-11T05:34:01.329Z,0.70
2023-01-11T05:36:28.041Z,0.80
2023-01-11T05:38:56.028Z,0.70
2023-01-11T05:41:24.412Z,0.70
2023-01-11T05:44:10.091Z,0.80
2023-01-11T05:46:38.078Z,0.80
2023-01-11T05:49:05.197Z,0.88
2023-01-11T05:51:32.652Z,1.95
2023-01-11T05:54:03.668Z,1.10
2023-01-11T05:56:30.640Z,0.90
2023-01-11T05:58:58.249Z,1.38
2023-01-11T06:01:25.075Z,4.68
2023-01-11T06:03:51.576Z,1.17
2023-01-11T06:06:19.005Z,1.13
2023-01-11T06:08:45.435Z,1.73
2023-01-11T06:11:11.887Z,0.77
2023-01-11T06:13:38.362Z,0.70
2023-01-11T06:16:07.908Z,0.82
2023-01-11T06:18:40.646Z,0.90
2023-01-11T06:21:07.704Z,3.70
2023-01-11T06:23:35.671Z,0.80
2023-01-11T06:26:07.391Z,0.75
2023-01-11T06:28:33.765Z,0.90
2023-01-11T06:31:00.436Z,2.30
2023-01-11T06:33:28.560Z,0.70
2023-01-11T06:35:55.883Z,0.75
2023-01-11T06:38:23.581Z,1.42
2023-01-11T06:41:00.812Z,1.25
2023-01-11T06:43:28.282Z,1.23
2023-01-11T06:45:55.097Z,0.85
2023-01-11T06:48:22.280Z,1.10
2023-01-11T06:50:56.296Z,1.13
2023-01-11T06:53:24.956Z,0.90
2023-01-11T06:55:53.851Z,0.90
2023-01-11T06:58:22.290Z,1.30
2023-01-11T07:00:49.261Z,1.88
2023-01-11T07:03:15.622Z,0.80
2023-01-11T07:05:43.796Z,1.25
2023-01-11T07:08:10.515Z,1.00
2023-01-11T07:10:37.002Z,1.23
2023-01-11T07:13:03.802Z,1.40
2023-01-11T07:15:30.295Z,1.58
2023-01-11T07:17:59.339Z,2.33
2023-01-11T07:20:26.556Z,1.40
2023-01-11T07:22:56.905Z,1.98
2023-01-11T07:25:23.372Z,1.63
2023-01-11T07:27:49.721Z,1.70
2023-01-11T07:30:16.379Z,2.22
2023-01-11T07:32:42.724Z,2.67
2023-01-11T07:35:09.449Z,2.05
2023-01-11T07:37:37.530Z,2.10
2023-01-11T07:40:04.566Z,2.00
2023-01-11T07:42:49.627Z,4.00
2023-01-11T07:45:16.160Z,3.22
2023-01-11T07:47:42.548Z,4.63
2023-01-11T07:50:09.577Z,2.58
2023-01-11T07:52:35.965Z,3.42
2023-01-11T07:55:02.822Z,2.90
2023-01-11T07:57:30.135Z,2.60
2023-01-11T07:59:56.510Z,4.05
2023-01-11T08:02:22.963Z,2.92
2023-01-11T08:04:49.434Z,2.80
2023-01-11T08:07:15.820Z,4.32
2023-01-11T08:09:42.256Z,3.70
2023-01-11T08:12:31.843Z,3.75
2023-01-11T08:14:58.404Z,5.00
2023-01-11T08:17:24.895Z,4.75
2023-01-11T08:19:51.361Z,4.60
2023-01-11T08:22:18.108Z,5.85
2023-01-11T08:24:44.548Z,4.18
2023-01-11T08:27:11.021Z,4.95
2023-01-11T08:29:37.914Z,10.55
2023-01-11T08:32:04.427Z,4.30
2023-01-11T08:34:32.048Z,3.97
2023-01-11T08:37:01.935Z,3.63
2023-01-11T08:39:30.867Z,4.97
2023-01-11T08:42:00.771Z,5.05
2023-01-11T08:44:34.015Z,5.53
2023-01-11T08:47:01.316Z,6.78
2023-01-11T08:49:27.740Z,6.50
2023-01-11T08:51:54.136Z,6.25
2023-01-11T08:54:20.571Z,7.38
2023-01-11T08:56:47.041Z,6.50
2023-01-11T08:59:13.611Z,7.05
2023-01-11T09:01:40.082Z,6.40
2023-01-11T09:04:15.755Z,6.78
2023-01-11T09:06:49.759Z,8.60
2023-01-11T09:09:16.263Z,10.25
2023-01-11T09:11:54.739Z,9.05
2023-01-11T09:14:22.247Z,15.05
2023-01-11T09:16:48.853Z,14.63
2023-01-11T09:19:15.382Z,13.88
2023-01-11T09:21:41.806Z,15.23
2023-01-11T09:24:08.336Z,14.25
2023-01-11T09:26:35.666Z,14.40
2023-01-11T09:29:02.167Z,13.75
2023-01-11T09:31:28.625Z,17.33
2023-01-11T09:33:55.126Z,17.80
2023-01-11T09:36:22.708Z,20.80
2023-01-11T09:38:50.311Z,13.15
2023-01-11T09:41:19.456Z,19.55
2023-01-11T09:43:53.939Z,12.95
2023-01-11T09:46:20.472Z,13.35
2023-01-11T09:48:52.461Z,17.90
2023-01-11T09:51:20.534Z,15.57
2023-01-11T09:53:50.189Z,15.57
2023-01-11T09:56:25.314Z,13.07
2023-01-11T09:58:54.664Z,19.98
2023-01-11T10:01:39.469Z,24.88
2023-01-11T10:04:32.892Z,11.15
2023-01-11T10:07:22.880Z,11.93
2023-01-11T10:18:39.014Z,16.90
2023-01-11T10:19:42.286Z,18.52
2023-01-11T10:22:17.956Z,18.58
2023-01-11T10:24:48.417Z,19.90
2023-01-11T10:27:31.214Z,16.73
2023-01-11T10:30:33.144Z,24.70
2023-01-11T10:33:23.433Z,15.63
2023-01-11T10:36:38.799Z,19.20
2023-01-11T10:39:35.638Z,13.50
2023-01-11T10:42:10.304Z,19.58
2023-01-11T10:44:42.407Z,16.45
2023-01-11T10:47:16.293Z,14.45
2023-01-11T10:49:58.786Z,24.98
2023-01-11T10:52:41.406Z,15.15
2023-01-11T10:55:13.125Z,15.75
2023-01-11T10:58:11.385Z,12.77
2023-01-11T11:01:04.009Z,14.05
2023-01-11T11:06:43.737Z,15.52
2023-01-11T11:09:22.243Z,16.90
2023-01-11T11:11:57.342Z,16.35
2023-01-11T11:14:47.453Z,15.45
2023-01-11T11:17:29.963Z,12.85
2023-01-11T11:19:57.291Z,18.80
2023-01-11T11:22:23.728Z,15.70
2023-01-11T11:24:57.254Z,18.95
2023-01-11T11:27:40.643Z,11.45
2023-01-11T11:30:11.853Z,21.30
2023-01-11T11:32:40.276Z,11.13
2023-01-11T11:35:10.444Z,21.52
2023-01-11T11:37:42.425Z,9.55
2023-01-11T11:40:32.971Z,17.58
2023-01-11T11:43:20.404Z,16.10
2023-01-11T11:45:56.767Z,7.53
2023-01-11T11:48:24.582Z,15.40
2023-01-11T11:50:53.464Z,12.05
2023-01-11T11:53:36.567Z,16.02
2023-01-11T11:56:08.933Z,13.80
2023-01-11T11:58:40.368Z,19.15
2023-01-11T12:01:08.123Z,15.90
2023-01-11T12:03:34.788Z,14.80
2023-01-11T12:06:05.310Z,9.88
2023-01-11T12:08:34.405Z,21.33
2023-01-11T12:11:06.463Z,13.15
2023-01-11T12:13:40.219Z,15.60
2023-01-11T12:16:18.160Z,22.23
2023-01-11T12:18:44.673Z,13.43
2023-01-11T12:21:25.426Z,18.77
2023-01-11T12:24:07.743Z,13.70
2023-01-11T12:26:38.541Z,14.20
2023-01-11T12:29:26.783Z,16.17
2023-01-11T12:32:02.207Z,19.20
2023-01-11T12:34:59.490Z,16.08
2023-01-11T12:37:27.086Z,16.75
2023-01-11T12:40:18.376Z,16.73
2023-01-11T12:43:03.406Z,13.48
2023-01-11T12:45:32.645Z,12.50
2023-01-11T12:48:04.122Z,16.50
2023-01-11T12:50:34.719Z,19.40
2023-01-11T12:53:21.548Z,20.27
2023-01-11T12:55:56.916Z,12.55
2023-01-11T12:58:32.853Z,15.48
2023-01-11T13:01:13.134Z,15.48
2023-01-11T13:03:42.401Z,12.35
2023-01-11T13:06:14.364Z,14.73
2023-01-11T13:08:55.327Z,13.18
2023-01-11T13:11:45.685Z,15.15
2023-01-11T13:15:00.006Z,14.23
2023-01-11T13:17:44.365Z,11.95
2023-01-11T13:20:16.645Z,13.00
2023-01-11T13:22:50.627Z,15.13
2023-01-11T13:25:21.090Z,13.60
2023-01-11T13:27:49.638Z,11.05
2023-01-11T13:30:17.959Z,20.83
2023-01-11T13:32:50.161Z,11.70
2023-01-11T13:37:53.403Z,17.05
2023-01-11T13:40:25.465Z,10.38
2023-01-11T13:42:56.109Z,9.35
2023-01-11T13:45:26.425Z,10.52
2023-01-11T13:47:58.534Z,12.40
2023-01-11T13:50:31.801Z,13.88
2023-01-11T13:53:24.265Z,12.98
2023-01-11T13:55:56.755Z,12.38
2023-01-11T13:58:29.001Z,5.63
2023-01-11T14:01:00.513Z,10.27
2023-01-11T14:04:18.653Z,10.88
2023-01-11T14:07:21.922Z,10.32
2023-01-11T14:09:58.480Z,15.20
2023-01-11T14:12:42.920Z,15.15
2023-01-11T14:15:41.238Z,13.20
2023-01-11T14:18:19.872Z,10.52
2023-01-11T14:21:12.508Z,10.82
2023-01-11T14:23:47.732Z,11.32
2023-01-11T14:26:38.097Z,17.90
2023-01-11T14:29:19.029Z,14.35
2023-01-11T14:32:17.428Z,10.90
2023-01-11T14:34:55.350Z,20.70
2023-01-11T14:38:07.355Z,21.70
2023-01-11T14:40:51.903Z,12.90
2023-01-11T14:43:52.700Z,13.73
2023-01-11T14:46:37.404Z,15.80
2023-01-11T14:49:23.658Z,15.20
2023-01-11T14:51:56.699Z,13.05
2023-01-11T14:54:30.463Z,18.25
2023-01-11T14:56:58.007Z,17.25
2023-01-11T14:59:30.450Z,14.75
2023-01-11T15:02:02.981Z,14.25
2023-01-11T15:04:55.756Z,12.10
2023-01-11T15:07:37.128Z,15.52
2023-01-11T15:10:29.960Z,17.75
2023-01-11T15:12:57.121Z,11.48
2023-01-11T15:15:47.616Z,9.05
2023-01-11T15:18:23.087Z,9.10
2023-01-11T15:21:03.973Z,11.07
2023-01-11T15:23:34.918Z,13.45
2023-01-11T15:26:04.256Z,10.27
2023-01-11T15:28:35.345Z,14.93
2023-01-11T15:31:05.434Z,13.18
2023-01-11T15:33:48.757Z,18.48
2023-01-11T15:36:15.336Z,19.73
2023-01-11T15:38:49.328Z,17.80
2023-01-11T15:41:39.644Z,15.82
2023-01-11T15:44:20.296Z,11.90
2023-01-11T15:46:55.017Z,10.48
2023-01-11T15:49:44.260Z,14.65
2023-01-11T15:52:40.931Z,16.30
2023-01-11T15:55:25.832Z,11.63
2023-01-11T15:58:13.368Z,9.40
2023-01-11T16:01:08.036Z,18.23
2023-01-11T16:04:00.825Z,18.90
2023-01-11T16:06:32.689Z,13.73
2023-01-11T16:09:06.544Z,19.98
2023-01-11T16:11:49.184Z,14.43
2023-01-11T16:14:53.140Z,14.48
2023-01-11T16:17:22.026Z,16.58
2023-01-11T16:19:52.920Z,14.30
2023-01-11T16:22:25.078Z,17.48
2023-01-11T16:27:27.625Z,18.30
2023-01-11T16:29:54.457Z,18.13
2023-01-11T16:32:26.759Z,13.73
2023-01-11T16:34:53.928Z,14.30
2023-01-11T16:37:42.525Z,15.70
2023-01-11T16:40:15.127Z,14.68
2023-01-11T16:42:52.359Z,12.60
2023-01-11T16:45:21.282Z,11.48
2023-01-11T16:48:12.333Z,17.42
2023-01-11T16:50:40.047Z,24.13
2023-01-11T16:53:12.093Z,19.45
2023-01-11T16:55:40.498Z,18.48
2023-01-11T16:58:19.055Z,13.32
2023-01-11T17:01:40.956Z,15.25
2023-01-11T17:04:34.700Z,21.45
2023-01-11T17:07:20.450Z,18.65
2023-01-11T17:09:46.854Z,20.00
2023-01-11T17:12:22.781Z,18.30
2023-01-11T17:15:26.735Z,24.17
2023-01-11T17:17:53.338Z,18.10
2023-01-11T17:20:21.910Z,17.92
2023-01-11T17:22:53.764Z,16.63
2023-01-11T17:25:23.518Z,13.80
2023-01-11T17:27:55.606Z,17.95
2023-01-11T17:30:23.983Z,19.45
2023-01-11T17:32:55.633Z,16.80
2023-01-11T17:35:25.890Z,17.05
2023-01-11T17:37:55.286Z,13.48
2023-01-11T17:40:35.306Z,14.25
2023-01-11T17:43:24.763Z,15.73
2023-01-11T17:45:56.553Z,14.30
2023-01-11T17:48:22.961Z,12.55
2023-01-11T17:50:54.292Z,14.73
2023-01-11T17:53:29.296Z,14.20
2023-01-11T17:56:00.837Z,12.90
2023-01-11T17:58:28.809Z,14.45
2023-01-11T18:01:04.567Z,16.65
2023-01-11T18:03:38.881Z,12.20
2023-01-11T18:06:12.787Z,11.05
2023-01-11T18:08:39.292Z,14.95
2023-01-11T18:11:05.954Z,15.00
2023-01-11T18:13:36.626Z,13.25
2023-01-11T18:16:03.697Z,15.23
2023-01-11T18:18:44.989Z,12.40
2023-01-11T18:21:26.537Z,15.98
2023-01-11T18:24:11.221Z,16.90
2023-01-11T18:26:39.283Z,20.83
2023-01-11T18:29:05.918Z,18.33
2023-01-11T18:31:32.668Z,18.40
2023-01-11T18:34:04.986Z,10.95
2023-01-11T18:36:31.336Z,13.93
2023-01-11T18:38:57.721Z,14.85
2023-01-11T18:41:44.629Z,11.30
2023-01-11T18:44:11.907Z,11.63
2023-01-11T18:46:38.298Z,14.93
2023-01-11T18:49:04.667Z,19.17
2023-01-11T18:51:36.152Z,10.98
2023-01-11T18:54:02.521Z,16.45
2023-01-11T18:56:29.021Z,13.55
2023-01-11T18:58:55.416Z,9.75
2023-01-11T19:01:21.911Z,11.07
2023-01-11T19:03:48.873Z,13.63
2023-01-11T19:06:19.174Z,11.65
2023-01-11T19:08:45.556Z,12.07
2023-01-11T19:11:13.837Z,14.90
2023-01-11T19:13:40.271Z,9.80
2023-01-11T19:16:07.308Z,13.85
2023-01-11T19:18:35.315Z,7.85
2023-01-11T19:21:05.199Z,9.70
2023-01-11T19:23:32.076Z,15.30
2023-01-11T19:26:01.188Z,13.52
2023-01-11T19:28:28.299Z,11.75
2023-01-11T19:30:54.751Z,9.07
2023-01-11T19:33:21.250Z,21.05
2023-01-11T19:35:49.241Z,11.55
2023-01-11T19:38:18.299Z,15.32
2023-01-11T19:40:45.426Z,16.50
2023-01-11T19:43:11.825Z,13.77
2023-01-11T19:45:38.207Z,11.68
2023-01-11T19:48:05.275Z,15.88
2023-01-11T19:50:31.710Z,12.75
2023-01-11T19:52:58.080Z,14.18
2023-01-11T19:55:24.748Z,6.60
2023-01-11T19:57:51.186Z,12.43
2023-01-11T20:00:20.321Z,9.35
2023-01-11T20:02:46.750Z,20.88
2023-01-11T20:05:13.618Z,9.20
2023-01-11T20:07:40.035Z,12.63
2023-01-11T20:10:06.521Z,16.10
2023-01-11T20:12:32.908Z,16.83
2023-01-11T20:15:01.310Z,11.15
2023-01-11T20:17:28.258Z,14.50
2023-01-11T20:19:55.037Z,14.18
2023-01-11T20:22:25.537Z,15.00
2023-01-11T20:24:52.111Z,14.40
2023-01-11T20:27:18.516Z,12.18
2023-01-11T20:29:45.642Z,16.02
2023-01-11T20:32:35.099Z,12.63
2023-01-11T20:34:58.448Z,7.40
2023-01-11T20:37:24.811Z,14.88
2023-01-11T20:39:51.222Z,13.05
2023-01-11T20:42:17.586Z,22.85
2023-01-11T20:44:43.999Z,16.50
2023-01-11T20:47:10.409Z,10.00
2023-01-11T20:49:36.829Z,12.52
2023-01-11T20:52:03.660Z,13.15
2023-01-11T20:54:30.056Z,14.73
2023-01-11T20:57:01.900Z,15.13
2023-01-11T20:59:28.296Z,14.68
2023-01-11T21:01:54.720Z,12.48
2023-01-11T21:04:21.088Z,17.75
2023-01-11T21:06:48.306Z,13.15
2023-01-11T21:09:16.796Z,17.38
2023-01-11T21:11:44.095Z,9.70
2023-01-11T21:14:11.998Z,17.85
2023-01-11T21:16:42.714Z,12.23
2023-01-11T21:19:11.615Z,13.77
2023-01-11T21:21:37.967Z,14.70
2023-01-11T21:24:05.053Z,10.70
2023-01-11T21:26:32.261Z,10.63
2023-01-11T21:29:00.545Z,9.18
2023-01-11T21:31:28.534Z,10.40
2023-01-11T21:33:55.112Z,14.63
2023-01-11T21:36:23.884Z,12.57
2023-01-11T21:38:50.608Z,44.97
2023-01-11T21:41:41.942Z,16.92
2023-01-11T21:44:09.175Z,12.98
2023-01-11T21:46:35.724Z,7.45
2023-01-11T21:49:02.386Z,25.15
2023-01-11T21:51:29.896Z,18.30
2023-01-11T21:53:57.172Z,13.82
2023-01-11T21:56:23.723Z,12.45
2023-01-11T21:58:50.572Z,12.05
2023-01-11T22:01:19.383Z,15.73
2023-01-11T22:03:46.032Z,11.52
2023-01-11T22:06:12.489Z,18.08
2023-01-11T22:08:39.922Z,12.35
2023-01-11T22:11:06.729Z,17.98
2023-01-11T22:13:34.697Z,9.85
2023-01-11T22:16:07.054Z,11.52
2023-01-11T22:21:08.705Z,11.88
2023-01-11T22:23:35.332Z,8.60
2023-01-11T22:26:13.059Z,12.82
2023-01-11T22:28:59.168Z,8.82
2023-01-11T22:31:27.344Z,12.15
2023-01-11T22:33:54.404Z,14.57
2023-01-11T22:36:21.861Z,22.48
2023-01-11T22:38:48.221Z,16.40
2023-01-11T22:41:15.168Z,18.20
2023-01-11T22:43:42.960Z,11.95
2023-01-11T22:46:13.089Z,17.92
2023-01-11T22:48:39.559Z,8.90
2023-01-11T22:51:06.827Z,15.48
2023-01-11T22:53:40.912Z,17.20
2023-01-11T22:56:08.458Z,14.43
2023-01-11T22:58:35.970Z,13.85
2023-01-11T23:01:16.001Z,13.32
2023-01-11T23:03:42.809Z,16.23
2023-01-11T23:06:09.862Z,15.95
2023-01-11T23:08:43.727Z,12.55
2023-01-11T23:11:13.824Z,10.98
2023-01-11T23:13:54.749Z,10.15
2023-01-11T23:16:24.308Z,15.30
2023-01-11T23:18:50.673Z,15.45
2023-01-11T23:21:17.092Z,13.07
2023-01-11T23:23:43.606Z,12.90
2023-01-11T23:26:12.028Z,11.15
2023-01-11T23:28:39.059Z,13.48
2023-01-11T23:31:15.832Z,9.95
2023-01-11T23:33:49.969Z,15.15
2023-01-11T23:36:18.488Z,15.43
2023-01-11T23:38:45.677Z,10.93
2023-01-11T23:41:32.261Z,15.20
2023-01-11T23:43:58.622Z,15.00
2023-01-11T23:46:43.821Z,13.15
2023-01-11T23:49:10.974Z,16.35
2023-01-11T23:51:37.973Z,11.98
2023-01-11T23:54:05.531Z,20.42
2023-01-11T23:56:33.070Z,16.85
2023-01-11T23:58:59.901Z,16.95
